Time;durP1;ratioP1;P1;durP2;ratioP2;P2;SDS_P1;SDS_P2;PMS_P1;PMS_P2;Temp;Humidity;BMP_temperature;BMP_pressure;BME280_temperature;BME280_humidity;BME280_pressure;Samples;Min_cycle;Max_cycle;Signal;HPM_P1;HPM_P2
2023/05/12 00:01:52;;;;;;;2.75;1.92;;;;;;;;;;6245328;28;20270;-85
2023/05/12 00:04:55;;;;;;;2.38;1.73;;;;;;;;;;6241734;28;20050;-84
2023/05/12 00:07:57;;;;;;;2.47;1.77;;;;;;;;;;6242774;28;20341;-84
2023/05/12 00:10:59;;;;;;;4.40;2.67;;;;;;;;;;6245012;28;20222;-85
2023/05/12 00:14:12;;;;;;;4.68;2.63;;;;;;;;;;6244634;28;20053;-86
2023/05/12 00:17:17;;;;;;;4.32;3.80;;;;;;;;;;6239771;28;20135;-85
2023/05/12 00:20:22;;;;;;;4.20;3.45;;;;;;;;;;6243241;28;20049;-85
2023/05/12 00:23:24;;;;;;;5.75;4.60;;;;;;;;;;6242280;28;20057;-87
2023/05/12 00:26:32;;;;;;;6.28;4.45;;;;;;;;;;6234844;28;20049;-85
2023/05/12 00:29:34;;;;;;;6.15;4.97;;;;;;;;;;6240841;28;20337;-87
2023/05/12 00:32:36;;;;;;;7.03;4.68;;;;;;;;;;6241713;28;20057;-84
2023/05/12 00:35:41;;;;;;;6.95;5.43;;;;;;;;;;6241767;28;21118;-84
2023/05/12 00:38:44;;;;;;;7.22;5.47;;;;;;;;;;6240013;28;20250;-86
2023/05/12 00:41:46;;;;;;;9.63;5.25;;;;;;;;;;6242215;28;20050;-84
2023/05/12 00:44:53;;;;;;;7.10;5.60;;;;;;;;;;6242251;28;20060;-84
2023/05/12 00:47:54;;;;;;;6.07;5.43;;;;;;;;;;6241138;28;20383;-87
2023/05/12 00:50:58;;;;;;;6.82;5.15;;;;;;;;;;6244259;28;20061;-85
2023/05/12 00:54:00;;;;;;;7.85;5.78;;;;;;;;;;6240839;28;20061;-84
2023/05/12 00:57:02;;;;;;;6.82;5.65;;;;;;;;;;6240477;28;20057;-85
2023/05/12 01:00:05;;;;;;;7.40;5.75;;;;;;;;;;6242831;28;20050;-86
2023/05/12 01:03:08;;;;;;;8.27;5.80;;;;;;;;;;6240966;28;20098;-85
2023/05/12 01:06:15;;;;;;;7.65;6.03;;;;;;;;;;6239121;28;20064;-86
2023/05/12 01:09:17;;;;;;;6.13;5.53;;;;;;;;;;6241070;28;20373;-86
2023/05/12 01:12:21;;;;;;;6.80;5.78;;;;;;;;;;6243267;28;20057;-88
2023/05/12 01:15:23;;;;;;;7.18;6.10;;;;;;;;;;6238185;28;20056;-85
2023/05/12 01:18:32;;;;;;;7.97;5.97;;;;;;;;;;6228921;28;20061;-85
2023/05/12 01:21:36;;;;;;;7.05;6.05;;;;;;;;;;6259352;28;20077;-86
2023/05/12 01:24:45;;;;;;;9.45;6.40;;;;;;;;;;6246348;28;20053;-87
2023/05/12 01:27:52;;;;;;;7.20;6.22;;;;;;;;;;6245189;28;20087;-87
2023/05/12 01:30:54;;;;;;;9.63;6.15;;;;;;;;;;6241493;28;20080;-86
2023/05/12 01:33:55;;;;;;;7.90;6.30;;;;;;;;;;6241564;28;20054;-87
2023/05/12 01:36:57;;;;;;;6.88;6.18;;;;;;;;;;6240778;28;20066;-86
2023/05/12 01:40:13;;;;;;;9.35;6.50;;;;;;;;;;6241189;28;20099;-86
2023/05/12 01:43:16;;;;;;;7.43;6.00;;;;;;;;;;6240380;28;20058;-85
2023/05/12 01:46:22;;;;;;;8.10;5.90;;;;;;;;;;6236614;28;20329;-87
2023/05/12 01:49:23;;;;;;;6.90;5.53;;;;;;;;;;6243878;28;20065;-85
2023/05/12 01:52:26;;;;;;;7.05;5.53;;;;;;;;;;6243810;28;20049;-86
2023/05/12 01:55:28;;;;;;;6.68;5.07;;;;;;;;;;6240598;28;20342;-85
2023/05/12 01:58:32;;;;;;;4.65;3.85;;;;;;;;;;6225868;28;20057;-85
2023/05/12 02:01:33;;;;;;;6.23;3.97;;;;;;;;;;6240123;28;20298;-83
2023/05/12 02:04:36;;;;;;;5.22;3.55;;;;;;;;;;6242404;28;20915;-85
2023/05/12 02:07:38;;;;;;;6.10;4.60;;;;;;;;;;6240958;28;20061;-87
2023/05/12 02:10:40;;;;;;;4.95;3.90;;;;;;;;;;6240046;28;20280;-84
2023/05/12 02:13:44;;;;;;;7.13;4.55;;;;;;;;;;6237045;28;20042;-86
2023/05/12 02:16:51;;;;;;;5.53;4.13;;;;;;;;;;6241751;28;20053;-88
2023/05/12 02:19:53;;;;;;;6.68;4.32;;;;;;;;;;6244855;28;20049;-86
2023/05/12 02:22:55;;;;;;;5.43;4.40;;;;;;;;;;6243120;28;20045;-86
2023/05/12 02:25:57;;;;;;;6.60;4.55;;;;;;;;;;6243379;28;20083;-84
2023/05/12 02:29:00;;;;;;;6.55;4.85;;;;;;;;;;6242734;28;20222;-87
2023/05/12 02:32:01;;;;;;;6.50;4.40;;;;;;;;;;6244999;28;20065;-87
2023/05/12 02:35:04;;;;;;;5.75;4.75;;;;;;;;;;6245063;28;20060;-84
2023/05/12 02:38:06;;;;;;;5.55;3.85;;;;;;;;;;6240236;28;20091;-86
2023/05/12 02:41:08;;;;;;;5.75;4.22;;;;;;;;;;6244647;28;20412;-86
2023/05/12 02:44:15;;;;;;;5.68;4.15;;;;;;;;;;6244626;28;20575;-87
2023/05/12 02:47:17;;;;;;;4.38;3.40;;;;;;;;;;6243499;28;20060;-86
2023/05/12 02:50:20;;;;;;;3.97;3.30;;;;;;;;;;6244289;28;20053;-86
2023/05/12 02:53:22;;;;;;;3.88;3.20;;;;;;;;;;6239941;28;20101;-86
2023/05/12 02:56:24;;;;;;;4.57;2.85;;;;;;;;;;6238076;28;20052;-86
2023/05/12 02:59:29;;;;;;;3.83;2.80;;;;;;;;;;6238165;28;20068;-87
2023/05/12 03:02:31;;;;;;;3.05;2.42;;;;;;;;;;6239645;28;20245;-85
2023/05/12 03:05:33;;;;;;;3.00;2.50;;;;;;;;;;6239352;28;20052;-84
2023/05/12 03:08:35;;;;;;;2.97;2.47;;;;;;;;;;6237045;28;20057;-84
2023/05/12 03:11:37;;;;;;;3.00;2.38;;;;;;;;;;6237554;28;20129;-86
2023/05/12 03:14:40;;;;;;;2.95;2.40;;;;;;;;;;6237271;28;20050;-87
2023/05/12 03:17:42;;;;;;;2.80;2.37;;;;;;;;;;6241556;28;20068;-84
2023/05/12 03:20:44;;;;;;;3.70;2.20;;;;;;;;;;6237705;28;20503;-83
2023/05/12 03:23:46;;;;;;;3.85;3.10;;;;;;;;;;6241223;28;20424;-84
2023/05/12 03:26:48;;;;;;;5.50;2.80;;;;;;;;;;6244406;28;20049;-86
2023/05/12 03:29:51;;;;;;;4.00;2.95;;;;;;;;;;6240550;28;20053;-85
2023/05/12 03:32:53;;;;;;;3.40;2.70;;;;;;;;;;6241661;28;20349;-84
2023/05/12 03:35:55;;;;;;;4.55;2.95;;;;;;;;;;6244294;28;20069;-87
2023/05/12 03:38:57;;;;;;;3.85;2.53;;;;;;;;;;6241351;28;20041;-87
2023/05/12 03:41:59;;;;;;;4.05;2.80;;;;;;;;;;6245708;28;20107;-84
2023/05/12 03:45:04;;;;;;;4.85;3.20;;;;;;;;;;6246156;28;20116;-87
2023/05/12 03:48:06;;;;;;;4.00;3.22;;;;;;;;;;6244150;28;20061;-86
2023/05/12 03:51:17;;;;;;;4.13;3.40;;;;;;;;;;6242832;28;20085;-87
2023/05/12 03:54:19;;;;;;;4.97;3.67;;;;;;;;;;6245377;28;20112;-86
2023/05/12 03:57:21;;;;;;;4.53;3.28;;;;;;;;;;6242760;28;20041;-85
2023/05/12 04:00:25;;;;;;;3.50;3.03;;;;;;;;;;6242533;28;20041;-85
2023/05/12 04:03:27;;;;;;;5.15;3.00;;;;;;;;;;6242606;28;20057;-85
2023/05/12 04:06:30;;;;;;;6.05;3.53;;;;;;;;;;6243309;28;20057;-86
2023/05/12 04:09:32;;;;;;;4.85;3.42;;;;;;;;;;6241177;28;20103;-87
2023/05/12 04:12:34;;;;;;;3.40;2.95;;;;;;;;;;6242653;28;20091;-86
2023/05/12 04:15:37;;;;;;;4.45;3.83;;;;;;;;;;6241198;28;20095;-85
2023/05/12 04:18:39;;;;;;;4.77;3.87;;;;;;;;;;6242200;28;20074;-85
2023/05/12 04:21:41;;;;;;;5.03;3.92;;;;;;;;;;6247044;28;20124;-86
2023/05/12 04:24:43;;;;;;;3.80;3.33;;;;;;;;;;6243556;28;20049;-85
2023/05/12 04:27:45;;;;;;;4.80;3.83;;;;;;;;;;6243902;28;20052;-86
2023/05/12 04:30:49;;;;;;;4.30;3.70;;;;;;;;;;6243341;28;20053;-84
2023/05/12 04:33:51;;;;;;;3.28;2.75;;;;;;;;;;6243331;28;20062;-87
2023/05/12 04:36:53;;;;;;;5.32;3.20;;;;;;;;;;6235992;28;20057;-87
2023/05/12 04:39:54;;;;;;;3.90;3.40;;;;;;;;;;6239066;28;20062;-86
2023/05/12 04:42:56;;;;;;;3.35;2.95;;;;;;;;;;6240879;28;20072;-83
2023/05/12 04:46:02;;;;;;;4.15;3.28;;;;;;;;;;6244001;28;20049;-86
2023/05/12 04:49:04;;;;;;;4.05;3.45;;;;;;;;;;6244118;28;20100;-86
2023/05/12 04:52:07;;;;;;;4.32;3.50;;;;;;;;;;6243736;28;20053;-84
2023/05/12 04:55:12;;;;;;;4.45;3.30;;;;;;;;;;6240256;28;20056;-86
2023/05/12 04:58:14;;;;;;;3.97;3.47;;;;;;;;;;6242561;28;20269;-86
2023/05/12 05:01:18;;;;;;;4.13;3.53;;;;;;;;;;6238920;28;20756;-88
2023/05/12 05:04:20;;;;;;;5.30;3.80;;;;;;;;;;6241582;28;20065;-84
2023/05/12 05:07:22;;;;;;;4.40;3.50;;;;;;;;;;6240475;28;20225;-84
2023/05/12 05:10:24;;;;;;;4.70;4.05;;;;;;;;;;6241243;28;20076;-80
2023/05/12 05:13:25;;;;;;;5.18;3.80;;;;;;;;;;6240194;28;20075;-82
2023/05/12 05:16:29;;;;;;;5.53;3.60;;;;;;;;;;6261704;28;20057;-82
2023/05/12 05:19:31;;;;;;;3.70;3.15;;;;;;;;;;6240870;28;20246;-82
2023/05/12 05:22:32;;;;;;;4.90;3.80;;;;;;;;;;6239207;28;20099;-83
2023/05/12 05:25:34;;;;;;;5.13;3.78;;;;;;;;;;6241084;28;20111;-81
2023/05/12 05:28:38;;;;;;;4.63;3.63;;;;;;;;;;6242545;28;20054;-83
2023/05/12 05:31:41;;;;;;;4.03;3.63;;;;;;;;;;6240689;28;20598;-80
2023/05/12 05:34:43;;;;;;;4.43;3.73;;;;;;;;;;6241773;28;20368;-80
2023/05/12 05:37:45;;;;;;;5.07;4.15;;;;;;;;;;6239494;28;20053;-80
2023/05/12 05:40:46;;;;;;;6.63;3.55;;;;;;;;;;6241637;28;20364;-80
2023/05/12 05:43:48;;;;;;;5.53;3.80;;;;;;;;;;6241002;28;20064;-80
2023/05/12 05:46:51;;;;;;;8.18;3.88;;;;;;;;;;6238153;28;20053;-80
2023/05/12 05:49:53;;;;;;;5.50;3.90;;;;;;;;;;6237086;28;20046;-81
2023/05/12 05:52:55;;;;;;;4.50;3.60;;;;;;;;;;6240464;28;20064;-79
2023/05/12 05:55:56;;;;;;;4.78;3.70;;;;;;;;;;6242744;28;20334;-80
2023/05/12 05:59:01;;;;;;;6.13;4.40;;;;;;;;;;6239643;28;20053;-79
2023/05/12 06:02:05;;;;;;;4.93;4.07;;;;;;;;;;6238706;28;20268;-80
2023/05/12 06:05:07;;;;;;;;;;;;;;;;;;6239799;28;20083;-79
2023/05/12 06:08:11;;;;;;;4.43;3.50;;;;;;;;;;6239492;28;20373;-86
2023/05/12 06:11:13;;;;;;;4.97;3.65;;;;;;;;;;6237844;28;20313;-81
2023/05/12 06:14:16;;;;;;;4.38;3.90;;;;;;;;;;6238537;28;20080;-82
2023/05/12 06:17:19;;;;;;;5.15;4.28;;;;;;;;;;6241269;28;20389;-81
2023/05/12 06:20:22;;;;;;;6.57;3.70;;;;;;;;;;6241240;28;20057;-80
2023/05/12 06:23:23;;;;;;;7.73;4.30;;;;;;;;;;6236188;28;20246;-80
2023/05/12 06:26:25;;;;;;;5.80;4.03;;;;;;;;;;6243581;28;20049;-79
2023/05/12 06:29:27;;;;;;;4.90;3.78;;;;;;;;;;6236190;28;20108;-80
2023/05/12 06:32:30;;;;;;;5.22;4.30;;;;;;;;;;6238225;28;20281;-80
2023/05/12 06:35:32;;;;;;;6.60;4.13;;;;;;;;;;6239278;28;20088;-81
2023/05/12 06:38:33;;;;;;;4.68;3.90;;;;;;;;;;6237568;28;20061;-79
2023/05/12 06:41:35;;;;;;;5.50;4.07;;;;;;;;;;6239963;28;20202;-79
2023/05/12 06:44:37;;;;;;;5.45;3.80;;;;;;;;;;6237422;28;20061;-80
2023/05/12 06:47:40;;;;;;;5.35;3.80;;;;;;;;;;6241430;28;20053;-79
2023/05/12 06:50:42;;;;;;;5.38;3.70;;;;;;;;;;6236107;28;20333;-80
2023/05/12 06:53:44;;;;;;;5.20;3.80;;;;;;;;;;6240400;28;20053;-79
2023/05/12 06:56:46;;;;;;;4.90;3.70;;;;;;;;;;6238964;28;20050;-80
2023/05/12 06:59:47;;;;;;;5.75;4.10;;;;;;;;;;6237881;28;20056;-80
2023/05/12 07:02:50;;;;;;;6.20;4.55;;;;;;;;;;6238290;28;20425;-81
2023/05/12 07:05:52;;;;;;;5.18;4.22;;;;;;;;;;6239765;28;20054;-80
2023/05/12 07:08:54;;;;;;;5.90;4.90;;;;;;;;;;6238898;28;20053;-81
2023/05/12 07:11:56;;;;;;;6.78;4.68;;;;;;;;;;6237196;28;20065;-79
2023/05/12 07:14:58;;;;;;;7.45;5.43;;;;;;;;;;6240391;28;20041;-79
2023/05/12 07:18:01;;;;;;;7.45;4.68;;;;;;;;;;6240814;28;20652;-80
2023/05/12 07:21:02;;;;;;;5.70;4.68;;;;;;;;;;6238643;28;20050;-79
2023/05/12 07:24:05;;;;;;;7.30;5.05;;;;;;;;;;6239181;28;20068;-79
2023/05/12 07:27:07;;;;;;;5.20;4.45;;;;;;;;;;6240050;28;20046;-80
2023/05/12 07:30:10;;;;;;;6.05;4.15;;;;;;;;;;6241275;28;20360;-80
2023/05/12 07:33:13;;;;;;;7.28;4.65;;;;;;;;;;6238959;28;20249;-80
2023/05/12 07:36:14;;;;;;;6.93;4.87;;;;;;;;;;6237166;28;20053;-80
2023/05/12 07:39:22;;;;;;;5.28;4.63;;;;;;;;;;6238471;28;20053;-79
2023/05/12 07:42:23;;;;;;;7.28;5.05;;;;;;;;;;6238918;28;20050;-80
2023/05/12 07:45:25;;;;;;;9.45;5.38;;;;;;;;;;6240416;28;20116;-80
2023/05/12 07:48:29;;;;;;;5.78;5.07;;;;;;;;;;6237619;28;20042;-80
2023/05/12 07:51:31;;;;;;;6.45;4.95;;;;;;;;;;6239447;28;20233;-81
2023/05/12 07:54:32;;;;;;;6.47;5.43;;;;;;;;;;6238934;28;20057;-80
2023/05/12 07:57:34;;;;;;;6.97;5.07;;;;;;;;;;6239943;28;20151;-80
2023/05/12 08:00:35;;;;;;;6.47;5.35;;;;;;;;;;6239838;28;20058;-79
2023/05/12 08:03:39;;;;;;;6.43;5.05;;;;;;;;;;6238311;28;20330;-80
2023/05/12 08:06:40;;;;;;;7.97;5.32;;;;;;;;;;6239920;28;20053;-81
2023/05/12 08:09:42;;;;;;;6.57;5.05;;;;;;;;;;6239084;28;20046;-79
2023/05/12 08:12:44;;;;;;;6.22;5.18;;;;;;;;;;6240496;28;20064;-80
2023/05/12 08:15:46;;;;;;;6.50;4.95;;;;;;;;;;6236554;28;20062;-80
2023/05/12 08:18:49;;;;;;;7.30;5.40;;;;;;;;;;6240774;28;20081;-80
2023/05/12 08:21:52;;;;;;;5.87;4.90;;;;;;;;;;6248180;28;20288;-80
2023/05/12 08:24:54;;;;;;;5.85;5.07;;;;;;;;;;6242159;28;20475;-81
2023/05/12 08:27:56;;;;;;;6.68;5.45;;;;;;;;;;6245898;28;20053;-79
2023/05/12 08:30:58;;;;;;;5.85;5.25;;;;;;;;;;6243401;28;20048;-80
2023/05/12 08:34:01;;;;;;;7.40;5.82;;;;;;;;;;6239855;28;20344;-80
2023/05/12 08:37:03;;;;;;;11.35;5.65;;;;;;;;;;6265319;28;20057;-80
2023/05/12 08:40:11;;;;;;;7.38;5.20;;;;;;;;;;6242784;28;20046;-80
2023/05/12 08:43:20;;;;;;;6.20;5.53;;;;;;;;;;6243542;28;20054;-79
2023/05/12 08:46:22;;;;;;;6.18;5.32;;;;;;;;;;6243966;28;20045;-80
2023/05/12 08:49:27;;;;;;;6.75;5.82;;;;;;;;;;6244554;28;20061;-80
2023/05/12 08:52:30;;;;;;;8.05;6.50;;;;;;;;;;6241866;28;20088;-81
2023/05/12 08:55:32;;;;;;;8.07;6.00;;;;;;;;;;6241621;28;20061;-79
2023/05/12 08:58:33;;;;;;;7.50;6.15;;;;;;;;;;6243830;28;20080;-80
2023/05/12 09:01:35;;;;;;;8.25;6.47;;;;;;;;;;6242619;28;20238;-80
2023/05/12 09:04:39;;;;;;;7.38;6.05;;;;;;;;;;6241017;28;20068;-80
2023/05/12 09:07:43;;;;;;;7.80;6.47;;;;;;;;;;6240536;28;20087;-80
2023/05/12 09:10:46;;;;;;;9.40;5.95;;;;;;;;;;6242002;28;20057;-80
2023/05/12 09:13:50;;;;;;;9.55;6.40;;;;;;;;;;6241711;28;20119;-79
2023/05/12 09:16:57;;;;;;;7.75;6.47;;;;;;;;;;6240797;28;20064;-79
2023/05/12 09:20:01;;;;;;;6.40;5.40;;;;;;;;;;6242958;28;20057;-80
2023/05/12 09:23:15;;;;;;;7.80;5.57;;;;;;;;;;6240388;28;20241;-80
2023/05/12 09:26:17;;;;;;;;;;;;;;;;;;6244036;28;20049;-79
2023/05/12 09:29:19;;;;;;;10.27;5.90;;;;;;;;;;6238035;28;19916;-79
2023/05/12 09:32:33;;;;;;;7.47;5.68;;;;;;;;;;6240466;28;20049;-81
2023/05/12 09:35:41;;;;;;;7.43;6.15;;;;;;;;;;6240603;28;20223;-81
2023/05/12 09:38:43;;;;;;;7.35;5.97;;;;;;;;;;6240901;28;20057;-80
2023/05/12 09:41:45;;;;;;;8.73;6.55;;;;;;;;;;6241024;28;20133;-81
2023/05/12 09:44:46;;;;;;;8.43;6.13;;;;;;;;;;6242312;28;20388;-80
2023/05/12 09:47:49;;;;;;;6.63;5.82;;;;;;;;;;6241825;28;20346;-80
2023/05/12 09:50:52;;;;;;;8.20;6.18;;;;;;;;;;6240191;28;20057;-81
2023/05/12 09:53:54;;;;;;;8.35;6.30;;;;;;;;;;6240605;28;20107;-79
2023/05/12 09:56:58;;;;;;;6.47;5.72;;;;;;;;;;6242401;28;20042;-79
2023/05/12 09:59:59;;;;;;;;;;;;;;;;;;6240997;28;20107;-80
2023/05/12 10:03:01;;;;;;;7.53;5.65;;;;;;;;;;6241090;28;20061;-80
2023/05/12 10:06:06;;;;;;;7.28;6.20;;;;;;;;;;6241479;28;20205;-80
2023/05/12 10:09:15;;;;;;;7.43;5.68;;;;;;;;;;6240485;28;20076;-80
2023/05/12 10:12:16;;;;;;;6.07;5.35;;;;;;;;;;6241341;28;20049;-81
2023/05/12 10:15:20;;;;;;;6.05;5.18;;;;;;;;;;6241760;28;20057;-80
2023/05/12 10:18:22;;;;;;;;;;;;;;;;;;6239926;28;20061;-79
2023/05/12 10:21:25;;;;;;;5.60;5.00;;;;;;;;;;6240594;28;20495;-80
2023/05/12 10:24:28;;;;;;;6.07;5.35;;;;;;;;;;6238202;28;20088;-80
2023/05/12 10:27:29;;;;;;;7.60;5.05;;;;;;;;;;6240768;28;20057;-80
2023/05/12 10:30:31;;;;;;;5.00;4.50;;;;;;;;;;6239272;28;20068;-81
2023/05/12 10:33:33;;;;;;;7.00;5.32;;;;;;;;;;6241744;28;20099;-80
2023/05/12 10:36:46;;;;;;;6.13;5.15;;;;;;;;;;6237103;28;20050;-80
2023/05/12 10:39:49;;;;;;;8.07;4.20;;;;;;;;;;6241407;28;20050;-81
2023/05/12 10:42:51;;;;;;;6.13;4.68;;;;;;;;;;6237629;28;20053;-80
2023/05/12 10:46:09;;;;;;;5.15;4.53;;;;;;;;;;6237868;28;20065;-80
2023/05/12 10:49:14;;;;;;;4.93;4.35;;;;;;;;;;6239057;28;20355;-81
2023/05/12 10:52:20;;;;;;;4.90;4.25;;;;;;;;;;6239165;28;20049;-80
2023/05/12 10:55:31;;;;;;;3.90;3.40;;;;;;;;;;6239215;28;20050;-81
2023/05/12 10:58:32;;;;;;;4.85;4.00;;;;;;;;;;6242211;28;20054;-81
2023/05/12 11:01:34;;;;;;;5.22;4.25;;;;;;;;;;6240645;28;20092;-80
2023/05/12 11:04:42;;;;;;;4.05;3.40;;;;;;;;;;6241364;28;20057;-80
2023/05/12 11:07:49;;;;;;;4.75;3.78;;;;;;;;;;6241121;28;20057;-81
2023/05/12 11:10:51;;;;;;;4.25;3.35;;;;;;;;;;6237410;28;20050;-81
2023/05/12 11:13:52;;;;;;;5.05;3.47;;;;;;;;;;6238265;28;20099;-81
2023/05/12 11:16:54;;;;;;;3.97;2.75;;;;;;;;;;6239701;28;20057;-81
2023/05/12 11:19:56;;;;;;;3.65;2.63;;;;;;;;;;6238849;28;20054;-80
2023/05/12 11:22:59;;;;;;;3.10;2.58;;;;;;;;;;6236706;28;20045;-82
2023/05/12 11:26:01;;;;;;;4.80;2.97;;;;;;;;;;6238163;28;20061;-81
2023/05/12 11:29:04;;;;;;;2.63;2.20;;;;;;;;;;6239700;28;20053;-81
2023/05/12 11:32:06;;;;;;;2.28;1.98;;;;;;;;;;6239378;28;20046;-80
2023/05/12 11:35:09;;;;;;;2.55;2.17;;;;;;;;;;6241326;28;20057;-81
2023/05/12 11:38:16;;;;;;;3.00;2.45;;;;;;;;;;6237220;28;20049;-80
2023/05/12 11:41:25;;;;;;;2.88;2.35;;;;;;;;;;6238222;28;20290;-81
2023/05/12 11:44:26;;;;;;;7.00;2.65;;;;;;;;;;6235422;28;20081;-80
2023/05/12 11:47:28;;;;;;;3.60;3.03;;;;;;;;;;6240324;28;20057;-79
2023/05/12 11:50:30;;;;;;;4.20;3.25;;;;;;;;;;6238073;28;20533;-79
2023/05/12 11:53:39;;;;;;;3.47;2.97;;;;;;;;;;6242154;28;20049;-79
2023/05/12 11:56:50;;;;;;;3.95;3.55;;;;;;;;;;6242030;28;20060;-80
2023/05/12 11:59:56;;;;;;;5.07;4.03;;;;;;;;;;6243186;28;20053;-80
2023/05/12 12:03:12;;;;;;;5.15;4.32;;;;;;;;;;6245417;28;20065;-79
2023/05/12 12:06:14;;;;;;;4.20;3.45;;;;;;;;;;6245283;28;20092;-81
2023/05/12 12:09:17;;;;;;;5.10;3.92;;;;;;;;;;6241380;28;20281;-79
2023/05/12 12:12:19;;;;;;;4.20;3.50;;;;;;;;;;6243490;28;20135;-80
2023/05/12 12:15:21;;;;;;;3.33;2.50;;;;;;;;;;6243303;28;20056;-79
2023/05/12 12:18:23;;;;;;;6.03;2.92;;;;;;;;;;6244444;28;20404;-80
2023/05/12 12:21:25;;;;;;;4.47;2.53;;;;;;;;;;6247260;28;20080;-80
2023/05/12 12:24:28;;;;;;;5.47;1.90;;;;;;;;;;6244213;28;20049;-80
2023/05/12 12:27:30;;;;;;;1.37;1.07;;;;;;;;;;6242890;28;20103;-79
2023/05/12 12:30:32;;;;;;;2.28;1.38;;;;;;;;;;6242585;28;20871;-76
2023/05/12 12:33:34;;;;;;;19.15;7.75;;;;;;;;;;6244227;28;20049;-76
2023/05/12 12:36:35;;;;;;;3.63;2.13;;;;;;;;;;6241359;28;20333;-76
2023/05/12 12:39:38;;;;;;;28.75;13.88;;;;;;;;;;6243153;28;20073;-77
2023/05/12 12:42:40;;;;;;;29.83;16.60;;;;;;;;;;6242666;28;20333;-76
2023/05/12 12:45:42;;;;;;;7.20;4.10;;;;;;;;;;6244088;28;20400;-76
2023/05/12 12:48:43;;;;;;;88.65;44.75;;;;;;;;;;6243727;28;20041;-75
2023/05/12 12:51:45;;;;;;;7.50;3.47;;;;;;;;;;6244980;28;20061;-76
2023/05/12 12:54:48;;;;;;;10.80;1.42;;;;;;;;;;6243047;28;20284;-80
2023/05/12 12:57:50;;;;;;;1.50;0.90;;;;;;;;;;6242764;28;20054;-81
2023/05/12 13:00:52;;;;;;;1.08;0.60;;;;;;;;;;6245121;28;20448;-81
2023/05/12 13:03:53;;;;;;;1.40;0.80;;;;;;;;;;6239753;28;20061;-81
2023/05/12 13:06:55;;;;;;;1.25;0.63;;;;;;;;;;6243607;28;20053;-80
2023/05/12 13:09:59;;;;;;;1.95;0.75;;;;;;;;;;6244333;28;20061;-79
2023/05/12 13:13:00;;;;;;;1.60;1.00;;;;;;;;;;6242292;28;20049;-79
2023/05/12 13:16:02;;;;;;;2.88;1.50;;;;;;;;;;6242466;28;20282;-78
2023/05/12 13:19:04;;;;;;;3.13;1.20;;;;;;;;;;6242177;28;20060;-80
2023/05/12 13:22:06;;;;;;;2.40;1.40;;;;;;;;;;6242117;28;20058;-79
2023/05/12 13:25:10;;;;;;;3.38;1.48;;;;;;;;;;6241999;28;20045;-79
2023/05/12 13:28:12;;;;;;;2.33;1.65;;;;;;;;;;6242352;28;20101;-79
2023/05/12 13:31:13;;;;;;;4.70;1.80;;;;;;;;;;6240457;28;20107;-79
2023/05/12 13:34:15;;;;;;;2.75;1.80;;;;;;;;;;6245017;28;20045;-80
2023/05/12 13:37:17;;;;;;;2.53;1.55;;;;;;;;;;6240821;28;20060;-80
2023/05/12 13:40:20;;;;;;;1.60;1.40;;;;;;;;;;6243170;28;20057;-79
2023/05/12 13:43:22;;;;;;;1.80;1.27;;;;;;;;;;6240772;28;20092;-80
2023/05/12 13:46:24;;;;;;;1.90;1.10;;;;;;;;;;6238585;28;20045;-79
2023/05/12 13:49:25;;;;;;;2.25;1.17;;;;;;;;;;6241344;28;20111;-80
2023/05/12 13:52:27;;;;;;;2.63;1.00;;;;;;;;;;6242057;28;20053;-80
2023/05/12 13:55:32;;;;;;;3.63;1.20;;;;;;;;;;6240440;28;20049;-79
2023/05/12 13:58:34;;;;;;;2.17;0.75;;;;;;;;;;6237740;28;20057;-80
2023/05/12 14:01:36;;;;;;;1.25;0.70;;;;;;;;;;6240769;28;20064;-79
2023/05/12 14:04:38;;;;;;;1.25;0.65;;;;;;;;;;6240294;28;20066;-79
2023/05/12 14:07:41;;;;;;;2.35;0.60;;;;;;;;;;6240929;28;20050;-79
2023/05/12 14:10:44;;;;;;;2.40;1.00;;;;;;;;;;6239329;28;20045;-80
2023/05/12 14:13:46;;;;;;;5.07;0.90;;;;;;;;;;6242045;28;20641;-80
2023/05/12 14:16:47;;;;;;;3.63;1.60;;;;;;;;;;6241267;28;20092;-79
2023/05/12 14:19:49;;;;;;;4.05;1.23;;;;;;;;;;6243978;28;20230;-79
2023/05/12 14:22:51;;;;;;;3.10;1.13;;;;;;;;;;6245859;28;20050;-80
2023/05/12 14:25:54;;;;;;;40.80;30.90;;;;;;;;;;6242089;28;20073;-78
2023/05/12 14:28:56;;;;;;;135.75;71.47;;;;;;;;;;6245174;28;20096;-79
2023/05/12 14:31:58;;;;;;;283.35;153.98;;;;;;;;;;6245953;28;20198;-79
2023/05/12 14:35:00;;;;;;;20.35;11.85;;;;;;;;;;6243866;28;20252;-79
2023/05/12 14:38:02;;;;;;;2.83;1.92;;;;;;;;;;6245951;28;20056;-80
2023/05/12 14:41:07;;;;;;;1.90;0.95;;;;;;;;;;6245693;28;20076;-79
2023/05/12 14:44:08;;;;;;;2.17;1.25;;;;;;;;;;6242199;28;20127;-79
2023/05/12 14:47:12;;;;;;;2.40;1.30;;;;;;;;;;6243135;28;20115;-79
2023/05/12 14:50:13;;;;;;;2.22;1.33;;;;;;;;;;6242297;28;20057;-79
2023/05/12 14:53:15;;;;;;;3.00;1.60;;;;;;;;;;6240558;28;20057;-79
2023/05/12 14:56:19;;;;;;;3.05;1.25;;;;;;;;;;6241591;28;20589;-80
2023/05/12 14:59:20;;;;;;;0.88;0.60;;;;;;;;;;6238497;28;20041;-80
2023/05/12 15:02:22;;;;;;;0.82;0.52;;;;;;;;;;6239296;28;20055;-80
2023/05/12 15:05:24;;;;;;;0.93;0.60;;;;;;;;;;6238463;28;20245;-81
2023/05/12 15:08:26;;;;;;;1.35;1.00;;;;;;;;;;6239390;28;20060;-80
2023/05/12 15:11:29;;;;;;;2.58;1.80;;;;;;;;;;6239565;28;20056;-80
2023/05/12 15:14:30;;;;;;;8.50;3.35;;;;;;;;;;6238480;28;20081;-79
2023/05/12 15:17:44;;;;;;;3.03;2.03;;;;;;;;;;6240015;28;20106;-80
2023/05/12 15:20:49;;;;;;;1.98;1.00;;;;;;;;;;6238566;28;20341;-80
2023/05/12 15:23:51;;;;;;;1.40;0.77;;;;;;;;;;6238438;28;20049;-81
2023/05/12 15:26:54;;;;;;;1.67;0.70;;;;;;;;;;6236598;28;20064;-80
2023/05/12 15:29:56;;;;;;;1.75;0.60;;;;;;;;;;6242745;28;20080;-78
2023/05/12 15:32:58;;;;;;;12.63;7.78;;;;;;;;;;6248444;28;20054;-79
2023/05/12 15:36:00;;;;;;;2.70;1.65;;;;;;;;;;6243695;28;20277;-80
2023/05/12 15:39:02;;;;;;;2.15;0.98;;;;;;;;;;6243891;28;20111;-80
2023/05/12 15:42:05;;;;;;;2.10;0.95;;;;;;;;;;6245449;28;20057;-79
2023/05/12 15:45:08;;;;;;;2.53;1.25;;;;;;;;;;6244985;28;20241;-79
2023/05/12 15:48:10;;;;;;;2.25;1.48;;;;;;;;;;6244867;28;20063;-79
2023/05/12 15:51:12;;;;;;;2.60;1.63;;;;;;;;;;6243599;28;20270;-79
2023/05/12 15:54:13;;;;;;;1.10;1.00;;;;;;;;;;6245681;28;20061;-79
2023/05/12 15:57:16;;;;;;;2.67;1.30;;;;;;;;;;6242015;28;20061;-79
2023/05/12 16:00:19;;;;;;;2.87;1.33;;;;;;;;;;6241746;28;20356;-79
2023/05/12 16:03:21;;;;;;;2.63;1.52;;;;;;;;;;6241216;28;20377;-79
2023/05/12 16:06:23;;;;;;;3.05;1.75;;;;;;;;;;6244287;28;20069;-79
2023/05/12 16:09:25;;;;;;;4.90;1.60;;;;;;;;;;6243206;28;20333;-79
2023/05/12 16:12:28;;;;;;;3.25;2.08;;;;;;;;;;6241800;28;20249;-79
2023/05/12 16:15:30;;;;;;;3.17;1.80;;;;;;;;;;6244395;28;20061;-80
2023/05/12 16:18:32;;;;;;;3.25;1.90;;;;;;;;;;6243341;28;20045;-80
2023/05/12 16:21:33;;;;;;;3.28;1.70;;;;;;;;;;6244482;28;20048;-78
2023/05/12 16:24:35;;;;;;;1.90;1.35;;;;;;;;;;6243016;28;20069;-79
2023/05/12 16:27:38;;;;;;;4.05;1.83;;;;;;;;;;6243986;28;20050;-79
2023/05/12 16:30:40;;;;;;;1.67;1.20;;;;;;;;;;6243087;28;20053;-79
2023/05/12 16:33:41;;;;;;;2.85;1.50;;;;;;;;;;6241629;28;20054;-79
2023/05/12 16:36:43;;;;;;;2.78;1.80;;;;;;;;;;6240047;28;20061;-79
2023/05/12 16:39:45;;;;;;;4.05;1.88;;;;;;;;;;6239368;28;20069;-79
2023/05/12 16:42:48;;;;;;;2.85;1.40;;;;;;;;;;6241090;28;20056;-79
2023/05/12 16:45:59;;;;;;;2.43;1.23;;;;;;;;;;6244772;28;20061;-79
2023/05/12 16:49:00;;;;;;;2.00;1.10;;;;;;;;;;6241632;28;20309;-79
2023/05/12 16:52:02;;;;;;;3.55;1.23;;;;;;;;;;6243271;28;20049;-79
2023/05/12 16:55:04;;;;;;;2.92;1.45;;;;;;;;;;6242400;28;20053;-78
2023/05/12 16:58:07;;;;;;;3.00;1.27;;;;;;;;;;6243873;28;20050;-79
2023/05/12 17:01:09;;;;;;;3.33;1.43;;;;;;;;;;6243467;28;20177;-80
2023/05/12 17:04:11;;;;;;;2.22;1.55;;;;;;;;;;6243523;28;20487;-82
2023/05/12 17:07:13;;;;;;;2.13;1.30;;;;;;;;;;6240345;28;20207;-81
2023/05/12 17:10:15;;;;;;;2.22;1.30;;;;;;;;;;6243890;28;20061;-86
2023/05/12 17:13:18;;;;;;;2.55;1.58;;;;;;;;;;6243321;28;20077;-82
2023/05/12 17:16:20;;;;;;;5.20;1.70;;;;;;;;;;6231681;28;20057;-84
2023/05/12 17:19:21;;;;;;;4.03;2.00;;;;;;;;;;6243169;28;20091;-80
2023/05/12 17:22:24;;;;;;;2.78;1.92;;;;;;;;;;6238559;28;20104;-82
2023/05/12 17:25:27;;;;;;;3.05;1.50;;;;;;;;;;6241597;28;20064;-82
2023/05/12 17:28:30;;;;;;;2.93;1.90;;;;;;;;;;6241438;28;20059;-82
2023/05/12 17:31:32;;;;;;;2.85;2.05;;;;;;;;;;6239799;28;20057;-80
2023/05/12 17:34:33;;;;;;;2.50;1.75;;;;;;;;;;6241933;28;20056;-81
2023/05/12 17:37:36;;;;;;;2.22;1.58;;;;;;;;;;6240655;28;20054;-84
2023/05/12 17:40:37;;;;;;;6.30;1.60;;;;;;;;;;6241386;28;20053;-80
2023/05/12 17:43:40;;;;;;;2.42;1.50;;;;;;;;;;6238322;28;20054;-82
2023/05/12 17:46:42;;;;;;;2.53;1.60;;;;;;;;;;6238752;28;20081;-83
2023/05/12 17:49:45;;;;;;;2.70;1.55;;;;;;;;;;6244037;28;20049;-81
2023/05/12 17:52:46;;;;;;;3.22;1.30;;;;;;;;;;6241632;28;20049;-80
2023/05/12 17:55:48;;;;;;;2.67;1.55;;;;;;;;;;6242241;28;20148;-80
2023/05/12 17:58:51;;;;;;;3.55;1.40;;;;;;;;;;6238721;28;20141;-82
2023/05/12 18:01:53;;;;;;;2.53;1.73;;;;;;;;;;6239606;28;20277;-82
2023/05/12 18:04:55;;;;;;;12.77;2.65;;;;;;;;;;6238098;28;20068;-81
2023/05/12 18:07:57;;;;;;;1.80;1.50;;;;;;;;;;6239618;28;20136;-82
2023/05/12 18:10:59;;;;;;;7.32;3.38;;;;;;;;;;6238244;28;20053;-82
2023/05/12 18:14:04;;;;;;;5.50;2.35;;;;;;;;;;6239591;28;20116;-82
2023/05/12 18:17:06;;;;;;;14.15;3.22;;;;;;;;;;6237406;28;20069;-80